Time;durP1;ratioP1;P1;durP2;ratioP2;P2;SDS_P1;SDS_P2;PMS_P1;PMS_P2;Temp;Humidity;BMP_temperature;BMP_pressure;BME280_temperature;BME280_humidity;BME280_pressure;Samples;Min_cycle;Max_cycle;Signal;HPM_P1;HPM_P2
2023/09/17 00:01:13;;;;;;;10.20;7.65;;;;;;;-145.70;100.00;63560.63;4967727;28;20026;-61
2023/09/17 00:03:38;;;;;;;10.73;8.02;;;;;;;-145.70;100.00;63560.63;4967568;28;20704;-61
2023/09/17 00:06:05;;;;;;;12.77;7.80;;;;;;;-145.70;100.00;63560.63;4974449;28;20072;-59
2023/09/17 00:08:30;;;;;;;12.13;7.63;;;;;;;-145.70;100.00;63560.63;4973301;28;20789;-59
2023/09/17 00:10:55;;;;;;;11.23;7.80;;;;;;;-145.70;100.00;63560.63;4987093;28;20100;-61
2023/09/17 00:13:21;;;;;;;9.82;7.57;;;;;;;-145.70;100.00;63560.63;4981394;28;20045;-61
2023/09/17 00:15:48;;;;;;;9.60;7.85;;;;;;;-145.70;100.00;63560.63;4974992;28;20042;-62
2023/09/17 00:18:14;;;;;;;12.05;7.53;;;;;;;-145.70;100.00;63560.63;4971607;28;20121;-66
2023/09/17 00:20:39;;;;;;;13.07;7.25;;;;;;;-145.70;100.00;63560.63;4975432;28;20030;-61
2023/09/17 00:23:07;;;;;;;10.45;7.70;;;;;;;-145.70;100.00;63560.63;4974545;28;20034;-62
2023/09/17 00:25:32;;;;;;;9.57;7.32;;;;;;;-145.70;100.00;63560.63;4973075;28;20073;-61
2023/09/17 00:27:58;;;;;;;11.48;7.22;;;;;;;-145.70;100.00;63560.63;4988743;28;20576;-62
2023/09/17 00:30:24;;;;;;;9.20;6.68;;;;;;;-145.70;100.00;63560.63;4975222;28;20037;-62
2023/09/17 00:32:52;;;;;;;9.63;6.93;;;;;;;-145.70;100.00;63560.63;4992620;28;21515;-62
2023/09/17 00:35:17;;;;;;;10.05;7.10;;;;;;;-145.70;100.00;63560.63;4977451;28;20101;-62
2023/09/17 00:37:45;;;;;;;9.00;6.72;;;;;;;-145.70;100.00;63560.63;4957919;28;21178;-64
2023/09/17 00:40:11;;;;;;;8.68;6.68;;;;;;;-145.70;100.00;63560.63;4962961;28;20062;-62
2023/09/17 00:42:37;;;;;;;8.50;6.18;;;;;;;-145.70;100.00;63560.63;4978202;28;20109;-62
2023/09/17 00:45:04;;;;;;;9.18;6.60;;;;;;;-145.70;100.00;63560.63;4978875;28;20539;-62
2023/09/17 00:47:30;;;;;;;9.32;6.95;;;;;;;-145.70;100.00;63560.63;4979472;28;20118;-62
2023/09/17 00:49:59;;;;;;;9.80;6.68;;;;;;;-145.70;100.00;63560.63;4975989;28;20034;-59
2023/09/17 00:52:25;;;;;;;8.88;6.20;;;;;;;-145.70;100.00;63560.63;4963635;28;20081;-62
2023/09/17 00:54:51;;;;;;;9.93;6.53;;;;;;;-145.70;100.00;63560.63;4976336;28;20034;-61
2023/09/17 00:57:16;;;;;;;9.98;6.10;;;;;;;-145.70;100.00;63560.63;4965648;28;20043;-61
2023/09/17 00:59:47;;;;;;;8.75;6.38;;;;;;;-145.70;100.00;63560.63;4996970;28;20034;-61
2023/09/17 01:02:18;;;;;;;8.13;5.80;;;;;;;-145.70;100.00;63560.63;4990209;28;20125;-61
2023/09/17 01:04:46;;;;;;;9.25;6.03;;;;;;;-145.70;100.00;63560.63;4985739;28;20064;-61
2023/09/17 01:07:12;;;;;;;9.40;6.45;;;;;;;-145.70;100.00;63560.63;4977983;28;20055;-61
2023/09/17 01:09:38;;;;;;;7.82;6.25;;;;;;;-145.70;100.00;63560.63;4980024;28;20395;-62
2023/09/17 01:12:05;;;;;;;7.55;5.78;;;;;;;-145.70;100.00;63560.63;4979795;28;20030;-61
2023/09/17 01:14:34;;;;;;;9.45;6.13;;;;;;;-145.70;100.00;63560.63;4977633;28;20029;-61
2023/09/17 01:17:00;;;;;;;10.07;6.35;;;;;;;-145.70;100.00;63560.63;4978263;28;20034;-60
2023/09/17 01:19:32;;;;;;;9.35;5.70;;;;;;;-145.70;100.00;63560.63;4997116;28;20027;-63
2023/09/17 01:22:03;;;;;;;7.72;6.20;;;;;;;-145.70;100.00;63560.63;4973346;28;20065;-62
2023/09/17 01:24:40;;;;;;;8.07;5.80;;;;;;;-145.70;100.00;63560.63;4977911;28;20034;-62
2023/09/17 01:27:08;;;;;;;8.40;5.68;;;;;;;-145.70;100.00;63560.63;4986259;28;20041;-62
2023/09/17 01:29:39;;;;;;;8.80;6.03;;;;;;;-145.70;100.00;63560.63;4977589;28;20046;-62
2023/09/17 01:32:08;;;;;;;9.50;5.93;;;;;;;-145.70;100.00;63560.63;4982707;28;20034;-62
2023/09/17 01:34:44;;;;;;;7.93;6.03;;;;;;;-145.70;100.00;63560.63;4980532;28;20026;-63
2023/09/17 01:37:27;;;;;;;11.48;6.63;;;;;;;-145.70;100.00;63560.63;4971222;28;20045;-62
2023/09/17 01:39:57;;;;;;;8.73;5.85;;;;;;;-145.70;100.00;63560.63;4980967;28;20121;-62
2023/09/17 01:42:23;;;;;;;8.82;5.38;;;;;;;-145.70;100.00;63560.63;4980245;28;20149;-62
2023/09/17 01:44:53;;;;;;;10.45;6.90;;;;;;;-145.70;100.00;63560.63;4981818;28;20417;-65
2023/09/17 01:47:22;;;;;;;8.23;6.18;;;;;;;-145.70;100.00;63560.63;4969648;28;20035;-62
2023/09/17 01:49:47;;;;;;;8.63;6.10;;;;;;;-145.70;100.00;63560.63;4984666;28;20034;-64
2023/09/17 01:52:20;;;;;;;10.63;6.57;;;;;;;-145.70;100.00;63560.63;4971265;28;20041;-62
2023/09/17 01:54:46;;;;;;;9.77;6.32;;;;;;;-145.70;100.00;63560.63;4978103;28;20038;-60
2023/09/17 01:57:13;;;;;;;8.90;5.93;;;;;;;-145.70;100.00;63560.63;4978049;28;20023;-61
2023/09/17 01:59:41;;;;;;;8.38;5.90;;;;;;;-145.70;100.00;63560.63;5011602;28;20100;-61
2023/09/17 02:02:07;;;;;;;8.07;5.90;;;;;;;-145.70;100.00;63560.63;4973787;28;20468;-61
2023/09/17 02:04:35;;;;;;;8.48;6.05;;;;;;;-145.70;100.00;63560.63;4978656;28;20039;-63
2023/09/17 02:07:00;;;;;;;10.10;6.07;;;;;;;-145.70;100.00;63560.63;4981981;28;20058;-62
2023/09/17 02:09:25;;;;;;;8.00;6.07;;;;;;;-145.70;100.00;63560.63;4966110;28;20096;-62
2023/09/17 02:11:51;;;;;;;10.02;5.95;;;;;;;-145.70;100.00;63560.63;4979135;28;20141;-61
2023/09/17 02:14:16;;;;;;;7.68;6.13;;;;;;;-145.70;100.00;63560.63;4978029;28;20149;-60
2023/09/17 02:16:42;;;;;;;8.07;5.95;;;;;;;-145.70;100.00;63560.63;4981536;28;20035;-61
2023/09/17 02:19:09;;;;;;;8.63;5.90;;;;;;;-145.70;100.00;63560.63;4960228;28;21098;-61
2023/09/17 02:21:35;;;;;;;9.65;5.65;;;;;;;-145.70;100.00;63560.63;4980490;28;20101;-61
2023/09/17 02:24:00;;;;;;;9.07;6.00;;;;;;;-145.70;100.00;63560.63;4977803;28;20038;-61
2023/09/17 02:26:26;;;;;;;7.90;5.88;;;;;;;-145.70;100.00;63560.63;4984017;28;20038;-62
2023/09/17 02:28:51;;;;;;;10.35;5.88;;;;;;;-145.70;100.00;63560.63;4978860;28;20046;-61
2023/09/17 02:31:20;;;;;;;8.10;5.35;;;;;;;-145.70;100.00;63560.63;4988742;28;20936;-62
2023/09/17 02:33:45;;;;;;;11.55;6.38;;;;;;;-145.70;100.00;63560.63;4978750;28;20065;-62
2023/09/17 02:36:13;;;;;;;8.27;6.00;;;;;;;-145.70;100.00;63560.63;4977575;28;20530;-59
2023/09/17 02:38:38;;;;;;;9.40;6.20;;;;;;;-145.70;100.00;63560.63;4998763;28;20034;-61
2023/09/17 02:41:04;;;;;;;7.95;5.50;;;;;;;-145.70;100.00;63560.63;4960182;28;20030;-59
2023/09/17 02:43:29;;;;;;;9.35;6.22;;;;;;;-145.70;100.00;63560.63;4983281;28;20030;-64
2023/09/17 02:45:58;;;;;;;8.23;5.70;;;;;;;-145.70;100.00;63560.63;4980041;28;20034;-61
2023/09/17 02:48:23;;;;;;;11.03;5.77;;;;;;;-145.70;100.00;63560.63;4976929;28;20042;-64
2023/09/17 02:50:49;;;;;;;10.65;5.82;;;;;;;-145.70;100.00;63560.63;4983285;28;20028;-64
2023/09/17 02:53:17;;;;;;;8.02;5.75;;;;;;;-145.70;100.00;63560.63;4979640;28;20038;-64
2023/09/17 02:55:45;;;;;;;7.65;5.40;;;;;;;-145.70;100.00;63560.63;4961752;28;20019;-63
2023/09/17 02:58:10;;;;;;;9.15;6.03;;;;;;;-145.70;100.00;63560.63;4978648;28;20030;-62
2023/09/17 03:00:35;;;;;;;8.77;5.85;;;;;;;-145.70;100.00;63560.63;4978964;28;20033;-62
2023/09/17 03:03:01;;;;;;;9.27;6.07;;;;;;;-145.70;100.00;63560.63;4982877;28;20030;-62
2023/09/17 03:05:27;;;;;;;9.52;5.78;;;;;;;-145.70;100.00;63560.63;4979590;28;20085;-62
2023/09/17 03:07:56;;;;;;;8.68;5.82;;;;;;;-145.70;100.00;63560.63;4976531;28;20410;-62
2023/09/17 03:10:24;;;;;;;9.85;5.90;;;;;;;-145.70;100.00;63560.63;4981585;28;20215;-62
2023/09/17 03:12:49;;;;;;;9.98;5.90;;;;;;;-145.70;100.00;63560.63;4979562;28;20053;-64
2023/09/17 03:15:18;;;;;;;9.60;6.00;;;;;;;-145.70;100.00;63560.63;4976595;28;20050;-61
2023/09/17 03:17:46;;;;;;;8.60;5.97;;;;;;;-145.70;100.00;63560.63;4982593;28;20380;-61
2023/09/17 03:20:18;;;;;;;9.50;6.40;;;;;;;-145.70;100.00;63560.63;4966597;28;20042;-62
2023/09/17 03:22:44;;;;;;;9.40;6.00;;;;;;;-145.70;100.00;63560.63;4981135;28;20101;-62
2023/09/17 03:25:14;;;;;;;10.13;5.78;;;;;;;-145.70;100.00;63560.63;4980508;28;21102;-62
2023/09/17 03:27:43;;;;;;;8.77;5.53;;;;;;;-145.70;100.00;63560.63;4978317;28;20038;-62
2023/09/17 03:30:09;;;;;;;9.85;5.90;;;;;;;-145.70;100.00;63560.63;4978556;28;20393;-64
2023/09/17 03:32:34;;;;;;;10.07;5.53;;;;;;;-145.70;100.00;63560.63;4971980;28;20025;-62
2023/09/17 03:35:01;;;;;;;8.65;5.80;;;;;;;-145.70;100.00;63560.63;4981960;28;20032;-62
2023/09/17 03:37:26;;;;;;;8.40;5.63;;;;;;;-145.70;100.00;63560.63;4964770;28;20077;-61
2023/09/17 03:40:12;;;;;;;8.63;5.38;;;;;;;-145.70;100.00;63560.63;4965045;28;20549;-63
2023/09/17 03:42:40;;;;;;;8.27;5.68;;;;;;;-145.70;100.00;63560.63;4993348;28;20026;-62
2023/09/17 03:45:12;;;;;;;7.97;5.82;;;;;;;-145.70;100.00;63560.63;4977923;28;20097;-62
2023/09/17 03:47:38;;;;;;;9.70;5.63;;;;;;;-145.70;100.00;63560.63;4980302;28;20093;-62
2023/09/17 03:50:06;;;;;;;9.50;6.40;;;;;;;-145.70;100.00;63560.63;4997125;28;20018;-64
2023/09/17 03:52:33;;;;;;;8.73;6.13;;;;;;;-145.70;100.00;63560.63;4982128;28;21042;-66
2023/09/17 03:55:00;;;;;;;8.52;5.65;;;;;;;-145.70;100.00;63560.63;4977620;28;20042;-63
2023/09/17 03:57:29;;;;;;;9.23;5.68;;;;;;;-145.70;100.00;63560.63;4979770;28;20054;-61
2023/09/17 03:59:57;;;;;;;7.97;5.57;;;;;;;-145.70;100.00;63560.63;4977299;28;20764;-64
2023/09/17 04:02:22;;;;;;;8.93;6.13;;;;;;;-145.70;100.00;63560.63;4980623;28;20077;-66
2023/09/17 04:04:48;;;;;;;8.30;6.18;;;;;;;-145.70;100.00;63560.63;4978199;28;20572;-60
2023/09/17 04:07:16;;;;;;;7.85;5.90;;;;;;;-145.70;100.00;63560.63;4979040;28;20148;-61
2023/09/17 04:09:46;;;;;;;9.02;6.43;;;;;;;-145.70;100.00;63560.63;4962521;28;20026;-60
2023/09/17 04:12:16;;;;;;;7.93;5.93;;;;;;;-145.70;100.00;63560.63;4979410;28;20478;-62
2023/09/17 04:14:44;;;;;;;8.90;5.80;;;;;;;-145.70;100.00;63560.63;4997707;28;20041;-61
2023/09/17 04:17:10;;;;;;;9.65;5.70;;;;;;;-145.70;100.00;63560.63;4980460;28;20038;-62
2023/09/17 04:19:37;;;;;;;7.75;5.65;;;;;;;-145.70;100.00;63560.63;4977060;28;20030;-62
2023/09/17 04:22:05;;;;;;;9.15;5.47;;;;;;;-145.70;100.00;63560.63;4977713;28;20481;-62
2023/09/17 04:24:31;;;;;;;8.90;5.82;;;;;;;-145.70;100.00;63560.63;4977324;28;20062;-63
2023/09/17 04:26:59;;;;;;;7.95;5.75;;;;;;;-145.70;100.00;63560.63;4981189;28;20535;-62
2023/09/17 04:29:24;;;;;;;10.10;5.40;;;;;;;-145.70;100.00;63560.63;4988248;28;20031;-62
2023/09/17 04:31:51;;;;;;;8.35;5.50;;;;;;;-145.70;100.00;63560.63;4969569;28;20603;-62
2023/09/17 04:34:18;;;;;;;9.75;5.53;;;;;;;-145.70;100.00;63560.63;4983416;28;20105;-61
2023/09/17 04:36:43;;;;;;;7.63;5.05;;;;;;;-145.70;100.00;63560.63;4975606;28;20539;-61
2023/09/17 04:39:13;;;;;;;9.95;5.00;;;;;;;-145.70;100.00;63560.63;4972729;28;20039;-61
2023/09/17 04:41:44;;;;;;;7.75;5.30;;;;;;;-145.70;100.00;63560.63;4966921;28;20033;-62
2023/09/17 04:44:10;;;;;;;7.82;5.28;;;;;;;-145.70;100.00;63560.63;4981758;28;20030;-62
2023/09/17 04:46:43;;;;;;;8.95;5.88;;;;;;;-145.70;100.00;63560.63;4984494;28;20104;-63
2023/09/17 04:49:12;;;;;;;7.63;5.43;;;;;;;-145.70;100.00;63560.63;4993086;28;20038;-63
2023/09/17 04:51:37;;;;;;;8.50;5.97;;;;;;;-145.70;100.00;63560.63;4978358;28;20034;-63
2023/09/17 04:54:04;;;;;;;10.93;5.43;;;;;;;-145.70;100.00;63560.63;4983717;28;20804;-63
2023/09/17 04:56:35;;;;;;;8.18;5.22;;;;;;;-145.70;100.00;63560.63;4983199;28;20485;-62
2023/09/17 04:59:01;;;;;;;7.50;5.00;;;;;;;-145.70;100.00;63560.63;4978496;28;20031;-62
2023/09/17 05:01:27;;;;;;;8.40;5.53;;;;;;;-145.70;100.00;63560.63;4981919;28;20049;-62
2023/09/17 05:03:53;;;;;;;8.32;5.43;;;;;;;-145.70;100.00;63560.63;4983003;28;20084;-62
2023/09/17 05:06:21;;;;;;;9.63;5.50;;;;;;;-145.70;100.00;63560.63;4971624;28;20038;-60
2023/09/17 05:08:46;;;;;;;7.55;5.40;;;;;;;-145.70;100.00;63560.63;4997214;28;20612;-61
2023/09/17 05:11:12;;;;;;;7.50;5.38;;;;;;;-145.70;100.00;63560.63;4998049;28;20105;-62
2023/09/17 05:13:37;;;;;;;7.28;5.38;;;;;;;-145.70;100.00;63560.63;4979048;28;20048;-61
2023/09/17 05:16:03;;;;;;;7.75;5.32;;;;;;;-145.70;100.00;63560.63;4964805;28;20029;-63
2023/09/17 05:18:29;;;;;;;7.30;5.05;;;;;;;-145.70;100.00;63560.63;4961688;28;20791;-62
2023/09/17 05:20:54;;;;;;;8.30;5.28;;;;;;;-145.70;100.00;63560.63;4982723;28;20807;-61
2023/09/17 05:23:21;;;;;;;9.52;5.20;;;;;;;-145.70;100.00;63560.63;4984295;28;20126;-62
2023/09/17 05:25:48;;;;;;;10.35;5.63;;;;;;;-145.70;100.00;63560.63;4978528;28;20486;-61
2023/09/17 05:28:14;;;;;;;7.75;5.35;;;;;;;-145.70;100.00;63560.63;4983683;28;20026;-62
2023/09/17 05:30:42;;;;;;;7.57;4.95;;;;;;;-145.70;100.00;63560.63;4979739;28;20034;-62
2023/09/17 05:33:07;;;;;;;7.20;4.90;;;;;;;-145.70;100.00;63560.63;4981417;28;20045;-62
2023/09/17 05:35:36;;;;;;;7.90;5.35;;;;;;;-145.70;100.00;63560.63;4981497;28;20068;-62
2023/09/17 05:38:06;;;;;;;7.13;5.13;;;;;;;-145.70;100.00;63560.63;4983086;28;20145;-62
2023/09/17 05:40:32;;;;;;;8.57;5.97;;;;;;;-145.70;100.00;63560.63;4981455;28;20073;-62
2023/09/17 05:42:57;;;;;;;8.43;4.95;;;;;;;-145.70;100.00;63560.63;4990862;28;20505;-61
2023/09/17 05:45:23;;;;;;;7.85;5.47;;;;;;;-145.70;100.00;63560.63;4988968;28;20400;-61
2023/09/17 05:47:49;;;;;;;7.82;5.18;;;;;;;-145.70;100.00;63560.63;4961422;28;20045;-63
2023/09/17 05:50:17;;;;;;;7.78;5.55;;;;;;;-145.70;100.00;63560.63;4976028;28;20805;-62
2023/09/17 05:52:42;;;;;;;8.98;5.55;;;;;;;-145.70;100.00;63560.63;4991512;28;20091;-60
2023/09/17 05:55:10;;;;;;;9.10;6.15;;;;;;;-145.70;100.00;63560.63;4980589;28;20026;-61
2023/09/17 05:57:38;;;;;;;8.20;5.53;;;;;;;-145.70;100.00;63560.63;4978472;28;20085;-63
2023/09/17 06:00:04;;;;;;;8.80;5.18;;;;;;;-145.70;100.00;63560.63;4978164;28;20733;-62
2023/09/17 06:02:32;;;;;;;7.60;5.60;;;;;;;-145.70;100.00;63560.63;4997598;28;20026;-61
2023/09/17 06:04:59;;;;;;;7.40;5.40;;;;;;;-145.70;100.00;63560.63;4978463;28;20032;-62
2023/09/17 06:07:25;;;;;;;8.43;5.13;;;;;;;-145.70;100.00;63560.63;4958666;28;20519;-62
2023/09/17 06:09:52;;;;;;;8.25;5.40;;;;;;;-145.70;100.00;63560.63;4979789;28;20033;-62
2023/09/17 06:12:20;;;;;;;8.45;5.10;;;;;;;-145.70;100.00;63560.63;4980449;28;20057;-60
2023/09/17 06:14:46;;;;;;;8.60;5.45;;;;;;;-145.70;100.00;63560.63;4974642;28;20198;-62
2023/09/17 06:17:11;;;;;;;8.35;5.30;;;;;;;-145.70;100.00;63560.63;4980661;28;20053;-61
2023/09/17 06:19:42;;;;;;;9.40;5.40;;;;;;;-145.70;100.00;63560.63;4963007;28;20045;-62
2023/09/17 06:22:08;;;;;;;6.60;4.72;;;;;;;-145.70;100.00;63560.63;4964688;28;20030;-61
2023/09/17 06:24:33;;;;;;;10.57;5.35;;;;;;;-145.70;100.00;63560.63;4979340;28;21622;-65
2023/09/17 06:26:58;;;;;;;8.38;5.45;;;;;;;-145.70;100.00;63560.63;4984554;28;20035;-62
2023/09/17 06:29:24;;;;;;;10.07;5.38;;;;;;;-145.70;100.00;63560.63;4962851;28;20030;-62
2023/09/17 06:31:49;;;;;;;7.40;5.55;;;;;;;-145.70;100.00;63560.63;4977119;28;20132;-65
2023/09/17 06:34:15;;;;;;;7.90;5.55;;;;;;;-145.70;100.00;63560.63;4974486;28;20026;-64
2023/09/17 06:36:43;;;;;;;8.63;5.28;;;;;;;-145.70;100.00;63560.63;4982558;28;20034;-63
2023/09/17 06:39:12;;;;;;;7.97;5.13;;;;;;;-145.70;100.00;63560.63;4974599;28;20034;-63
2023/09/17 06:41:37;;;;;;;8.90;5.18;;;;;;;-145.70;100.00;63560.63;4978531;28;20487;-62
2023/09/17 06:44:05;;;;;;;9.63;5.03;;;;;;;-145.70;100.00;63560.63;4977049;28;20022;-62
2023/09/17 06:46:30;;;;;;;8.88;5.35;;;;;;;-145.70;100.00;63560.63;4979810;28;20154;-60
2023/09/17 06:48:55;;;;;;;9.00;5.07;;;;;;;-145.70;100.00;63560.63;4978466;28;20025;-61
2023/09/17 06:51:21;;;;;;;9.48;5.28;;;;;;;-145.70;100.00;63560.63;4993363;28;20481;-60
2023/09/17 06:53:51;;;;;;;9.40;4.80;;;;;;;-145.70;100.00;63560.63;4978813;28;20161;-60
2023/09/17 06:56:16;;;;;;;8.43;5.80;;;;;;;-145.70;100.00;63560.63;4977031;28;20046;-61
2023/09/17 06:58:43;;;;;;;8.95;5.40;;;;;;;-145.70;100.00;63560.63;4970087;28;20516;-61
2023/09/17 07:01:09;;;;;;;10.02;4.93;;;;;;;-145.70;100.00;63560.63;4990367;28;20039;-61
2023/09/17 07:03:34;;;;;;;8.50;5.15;;;;;;;-145.70;100.00;63560.63;4973222;28;20838;-64
2023/09/17 07:05:59;;;;;;;8.05;4.60;;;;;;;-145.70;100.00;63560.63;4960003;28;20034;-63
2023/09/17 07:08:25;;;;;;;9.93;5.28;;;;;;;-145.70;100.00;63560.63;4971468;28;20046;-61
2023/09/17 07:10:51;;;;;;;7.30;4.90;;;;;;;-145.70;100.00;63560.63;4963197;28;20026;-60
2023/09/17 07:13:16;;;;;;;6.40;4.70;;;;;;;-145.70;100.00;63560.63;4986650;28;20109;-62
2023/09/17 07:15:43;;;;;;;8.23;4.93;;;;;;;-145.70;100.00;63560.63;4964706;28;20634;-62
2023/09/17 07:18:12;;;;;;;6.70;4.82;;;;;;;-145.70;100.00;63560.63;4973297;28;20065;-63
2023/09/17 07:20:42;;;;;;;7.57;5.10;;;;;;;-145.70;100.00;63560.63;4965476;28;20030;-61
2023/09/17 07:23:08;;;;;;;7.50;4.95;;;;;;;-145.70;100.00;63560.63;4965013;28;20649;-61
2023/09/17 07:25:33;;;;;;;9.77;5.13;;;;;;;-145.70;100.00;63560.63;4978550;28;20038;-62
2023/09/17 07:28:07;;;;;;;8.93;4.47;;;;;;;-145.70;100.00;63560.63;4973619;28;21122;-63
2023/09/17 07:30:34;;;;;;;9.18;4.72;;;;;;;-145.70;100.00;63560.63;4967923;28;20454;-62
2023/09/17 07:33:01;;;;;;;8.90;4.80;;;;;;;-145.70;100.00;63560.63;4972551;28;20035;-64
2023/09/17 07:35:29;;;;;;;6.70;4.90;;;;;;;-145.70;100.00;63560.63;4977056;28;20026;-62
2023/09/17 07:37:56;;;;;;;7.07;4.72;;;;;;;-145.70;100.00;63560.63;4973354;28;20113;-62
2023/09/17 07:40:22;;;;;;;7.32;4.70;;;;;;;-145.70;100.00;63560.63;4974084;28;20489;-63
2023/09/17 07:42:47;;;;;;;8.10;4.90;;;;;;;-145.70;100.00;63560.63;4975052;28;20118;-61
2023/09/17 07:45:15;;;;;;;10.20;5.18;;;;;;;-145.70;100.00;63560.63;4980710;28;20540;-61
2023/09/17 07:47:45;;;;;;;8.52;5.32;;;;;;;-145.70;100.00;63560.63;4976077;28;20046;-62
2023/09/17 07:50:10;;;;;;;7.15;4.97;;;;;;;-145.70;100.00;63560.63;4967484;28;20038;-62
2023/09/17 07:52:39;;;;;;;8.55;5.13;;;;;;;-145.70;100.00;63560.63;4979552;28;20034;-63
2023/09/17 07:55:05;;;;;;;8.03;5.17;;;;;;;-145.70;100.00;63560.63;4973144;28;20030;-62
2023/09/17 07:57:33;;;;;;;7.00;5.00;;;;;;;-145.70;100.00;63560.63;4979122;28;20122;-62
2023/09/17 07:59:58;;;;;;;7.90;4.97;;;;;;;-145.70;100.00;63560.63;4973284;28;20061;-63
2023/09/17 08:02:26;;;;;;;8.18;5.30;;;;;;;-145.70;100.00;63560.63;4979392;28;20026;-62
2023/09/17 08:04:56;;;;;;;8.20;5.05;;;;;;;-145.70;100.00;63560.63;4972849;28;20134;-61
2023/09/17 08:07:24;;;;;;;8.45;5.07;;;;;;;-145.70;100.00;63560.63;4976656;28;20169;-64
2023/09/17 08:09:54;;;;;;;8.23;5.10;;;;;;;-145.70;100.00;63560.63;4978343;28;20034;-63
2023/09/17 08:12:22;;;;;;;9.40;5.03;;;;;;;-145.70;100.00;63560.63;4976468;28;20177;-61
2023/09/17 08:14:48;;;;;;;11.00;6.35;;;;;;;-145.70;100.00;63560.63;4986984;28;20030;-63
2023/09/17 08:17:13;;;;;;;8.95;5.10;;;;;;;-145.70;100.00;63560.63;4981001;28;20488;-62
2023/09/17 08:19:39;;;;;;;9.73;5.63;;;;;;;-145.70;100.00;63560.63;4989250;28;20037;-62
2023/09/17 08:22:07;;;;;;;8.75;5.18;;;;;;;-145.70;100.00;63560.63;4985020;28;20037;-62
2023/09/17 08:24:32;;;;;;;9.00;5.30;;;;;;;-145.70;100.00;63560.63;4984388;28;20104;-61
2023/09/17 08:26:58;;;;;;;9.20;5.57;;;;;;;-145.70;100.00;63560.63;4985495;28;20038;-61
2023/09/17 08:29:26;;;;;;;6.97;4.90;;;;;;;-145.70;100.00;63560.63;4983450;28;20064;-61
2023/09/17 08:31:51;;;;;;;8.23;4.80;;;;;;;-145.70;100.00;63560.63;4985478;28;20037;-63
2023/09/17 08:34:19;;;;;;;7.45;5.00;;;;;;;-145.70;100.00;63560.63;4984754;28;20026;-63
2023/09/17 08:36:50;;;;;;;7.85;4.78;;;;;;;-145.70;100.00;63560.63;4986420;28;20521;-64
2023/09/17 08:39:15;;;;;;;9.18;5.13;;;;;;;-145.70;100.00;63560.63;4983084;28;20108;-61
2023/09/17 08:41:42;;;;;;;8.80;4.93;;;;;;;-145.70;100.00;63560.63;4993533;28;20046;-62
2023/09/17 08:44:08;;;;;;;9.23;5.20;;;;;;;-145.70;100.00;63560.63;4983097;28;20141;-62
2023/09/17 08:46:35;;;;;;;6.53;4.85;;;;;;;-145.70;100.00;63560.63;4980934;28;20345;-62
2023/09/17 08:49:03;;;;;;;8.68;5.10;;;;;;;-145.70;100.00;63560.63;4984115;28;20026;-62
2023/09/17 08:51:32;;;;;;;7.55;4.88;;;;;;;-145.70;100.00;63560.63;4982093;28;20085;-63
2023/09/17 08:54:06;;;;;;;8.13;4.90;;;;;;;-145.70;100.00;63560.63;4985586;28;20112;-62
2023/09/17 08:56:34;;;;;;;7.22;5.00;;;;;;;-145.70;100.00;63560.63;4976666;28;20030;-61
2023/09/17 08:59:12;;;;;;;10.10;5.15;;;;;;;-145.70;100.00;63560.63;4972447;28;20584;-63
2023/09/17 09:01:41;;;;;;;7.88;4.90;;;;;;;-145.70;100.00;63560.63;4976917;28;20038;-62
2023/09/17 09:04:10;;;;;;;9.35;4.85;;;;;;;-145.70;100.00;63560.63;4978587;28;20058;-62
2023/09/17 09:06:37;;;;;;;7.07;4.60;;;;;;;-145.70;100.00;63560.63;4974136;28;20081;-61
2023/09/17 09:09:06;;;;;;;9.88;4.80;;;;;;;-145.70;100.00;63560.63;4970338;28;20707;-63
2023/09/17 09:11:35;;;;;;;7.33;4.90;;;;;;;-145.70;100.00;63560.63;4980184;28;20034;-62
2023/09/17 09:14:04;;;;;;;7.18;4.90;;;;;;;-145.70;100.00;63560.63;4979653;28;20273;-62
2023/09/17 09:16:32;;;;;;;7.07;4.85;;;;;;;-145.70;100.00;63560.63;4977658;28;20061;-62
2023/09/17 09:18:57;;;;;;;8.32;5.60;;;;;;;-145.70;100.00;63560.63;4950534;28;20573;-62
2023/09/17 09:21:28;;;;;;;6.93;5.15;;;;;;;-145.70;100.00;63560.63;4975644;28;20192;-62
2023/09/17 09:23:57;;;;;;;7.85;4.82;;;;;;;-145.70;100.00;63560.63;4977019;28;20046;-62
2023/09/17 09:26:32;;;;;;;7.28;4.57;;;;;;;-145.70;100.00;63560.63;4975841;28;20039;-62
2023/09/17 09:28:57;;;;;;;6.72;4.38;;;;;;;-145.70;100.00;63560.63;4978014;28;20026;-63
2023/09/17 09:31:23;;;;;;;9.10;5.10;;;;;;;-145.70;100.00;63560.63;4971614;28;20044;-63
2023/09/17 09:33:51;;;;;;;7.10;4.50;;;;;;;-145.70;100.00;63560.63;4960789;28;20030;-63
2023/09/17 09:36:21;;;;;;;7.38;4.82;;;;;;;-145.70;100.00;63560.63;4973114;28;20517;-61
2023/09/17 09:38:47;;;;;;;7.60;4.28;;;;;;;-145.70;100.00;63560.63;4974853;28;20038;-61
2023/09/17 09:41:12;;;;;;;6.88;4.40;;;;;;;-145.70;100.00;63560.63;4983611;28;20045;-62
2023/09/17 09:43:40;;;;;;;7.78;4.30;;;;;;;-145.70;100.00;63560.63;4964199;28;20018;-62
2023/09/17 09:46:06;;;;;;;6.93;4.20;;;;;;;-145.70;100.00;63560.63;4977435;28;20034;-61
2023/09/17 09:48:35;;;;;;;6.65;4.40;;;;;;;-145.70;100.00;63560.63;4992411;28;20815;-62
2023/09/17 09:51:01;;;;;;;6.60;4.32;;;;;;;-145.70;100.00;63560.63;4962629;28;20117;-65
2023/09/17 09:53:26;;;;;;;7.43;4.25;;;;;;;-145.70;100.00;63560.63;4977626;28;20417;-62
2023/09/17 09:55:51;;;;;;;8.13;4.50;;;;;;;-145.70;100.00;63560.63;4977826;28;20049;-63
2023/09/17 09:58:17;;;;;;;6.63;4.30;;;;;;;-145.70;100.00;63560.63;4963047;28;20034;-62
2023/09/17 10:00:45;;;;;;;6.35;4.45;;;;;;;-145.70;100.00;63560.63;4965893;28;20863;-63
2023/09/17 10:03:20;;;;;;;7.10;4.45;;;;;;;-145.70;100.00;63560.63;4963239;28;20034;-63
2023/09/17 10:05:46;;;;;;;6.57;4.22;;;;;;;-145.70;100.00;63560.63;4981733;28;20144;-64
2023/09/17 10:08:17;;;;;;;9.73;4.30;;;;;;;-145.70;100.00;63560.63;4977219;28;20413;-63
2023/09/17 10:10:43;;;;;;;6.40;4.30;;;;;;;-145.70;100.00;63560.63;4983064;28;20042;-63
2023/09/17 10:13:12;;;;;;;7.85;4.32;;;;;;;-145.70;100.00;63560.63;4971380;28;20037;-65
2023/09/17 10:15:42;;;;;;;7.57;4.32;;;;;;;-145.70;100.00;63560.63;4978927;28;20092;-63
2023/09/17 10:18:12;;;;;;;6.75;4.18;;;;;;;-145.70;100.00;63560.63;4978690;28;20034;-63
2023/09/17 10:20:38;;;;;;;6.93;4.28;;;;;;;-145.70;100.00;63560.63;4994171;28;20120;-63
2023/09/17 10:23:06;;;;;;;8.48;4.10;;;;;;;-145.70;100.00;63560.63;4969639;28;20096;-63
2023/09/17 10:25:33;;;;;;;6.20;4.00;;;;;;;-145.70;100.00;63560.63;4977742;28;20030;-62
2023/09/17 10:28:01;;;;;;;7.10;4.30;;;;;;;-145.70;100.00;63560.63;4976477;28;20410;-64
2023/09/17 10:30:27;;;;;;;8.10;4.20;;;;;;;-145.70;100.00;63560.63;4972698;28;20027;-63
2023/09/17 10:32:53;;;;;;;5.88;3.50;;;;;;;-145.70;100.00;63560.63;4964612;28;20031;-62
2023/09/17 10:35:19;;;;;;;6.38;4.00;;;;;;;-145.70;100.00;63560.63;4976305;28;20030;-63
2023/09/17 10:37:47;;;;;;;6.03;3.78;;;;;;;-145.70;100.00;63560.63;4990775;28;20654;-62
2023/09/17 10:40:13;;;;;;;9.52;3.67;;;;;;;-145.70;100.00;63560.63;4975321;28;20478;-63
2023/09/17 10:42:38;;;;;;;7.13;4.10;;;;;;;-145.70;100.00;63560.63;4978506;28;20064;-62
2023/09/17 10:45:09;;;;;;;6.55;3.80;;;;;;;-145.70;100.00;63560.63;4984018;28;20037;-62
2023/09/17 10:47:40;;;;;;;7.40;4.22;;;;;;;-145.70;100.00;63560.63;4959160;28;20057;-62
2023/09/17 10:50:06;;;;;;;5.90;3.90;;;;;;;-145.70;100.00;63560.63;4974800;28;20812;-62
2023/09/17 10:52:32;;;;;;;6.20;4.03;;;;;;;-145.70;100.00;63560.63;4972837;28;20038;-62
2023/09/17 10:55:01;;;;;;;6.38;3.63;;;;;;;-145.70;100.00;63560.63;4991572;28;20034;-61
2023/09/17 10:57:37;;;;;;;5.70;3.65;;;;;;;-145.70;100.00;63560.63;4976375;28;20026;-62
2023/09/17 11:00:04;;;;;;;7.00;3.45;;;;;;;-145.70;100.00;63560.63;4957250;28;20055;-63
2023/09/17 11:02:32;;;;;;;5.80;3.90;;;;;;;-145.70;100.00;63560.63;4964582;28;20036;-63
2023/09/17 11:04:58;;;;;;;6.20;3.33;;;;;;;-145.70;100.00;63560.63;4992133;28;20041;-62
2023/09/17 11:07:26;;;;;;;6.95;3.55;;;;;;;-145.70;100.00;63560.63;4979834;28;20046;-62
2023/09/17 11:09:52;;;;;;;7.22;3.50;;;;;;;-145.70;100.00;63560.63;4989280;28;20054;-63